Time;durP1;ratioP1;P1;durP2;ratioP2;P2;SDS_P1;SDS_P2;PMS_P1;PMS_P2;Temp;Humidity;BMP_temperature;BMP_pressure;BME280_temperature;BME280_humidity;BME280_pressure;Samples;Min_cycle;Max_cycle;Signal;HPM_P1;HPM_P2
2023/12/22 00:01:06;;;;;;;4.13;1.85;;;4.50;99.90;;;;;;4980256;28;89066;-30
2023/12/22 00:03:32;;;;;;;8.68;1.60;;;4.40;99.90;;;;;;4979438;28;90962;-31
2023/12/22 00:05:58;;;;;;;10.60;2.30;;;4.30;99.90;;;;;;4979290;28;89594;-30
2023/12/22 00:08:24;;;;;;;8.20;5.13;;;4.20;99.90;;;;;;4979681;28;91191;-30
2023/12/22 00:10:50;;;;;;;7.85;3.20;;;4.20;99.90;;;;;;4980778;28;89723;-28
2023/12/22 00:13:15;;;;;;;12.63;3.58;;;4.20;99.90;;;;;;4979788;28;90264;-29
2023/12/22 00:15:42;;;;;;;7.07;2.22;;;4.20;99.90;;;;;;4978122;28;89170;-28
2023/12/22 00:18:08;;;;;;;13.68;3.45;;;4.30;99.90;;;;;;4979573;28;89059;-28
2023/12/22 00:20:34;;;;;;;13.40;3.30;;;4.30;99.90;;;;;;4979595;28;89079;-30
2023/12/22 00:22:59;;;;;;;8.68;2.75;;;4.40;99.90;;;;;;4979173;28;89999;-32
2023/12/22 00:25:25;;;;;;;14.70;4.35;;;4.40;99.90;;;;;;4979392;28;89393;-32
2023/12/22 00:27:51;;;;;;;9.05;2.90;;;4.40;99.90;;;;;;4978963;28;90257;-28
2023/12/22 00:30:16;;;;;;;18.70;6.18;;;4.50;99.90;;;;;;4979856;28;87703;-30
2023/12/22 00:32:42;;;;;;;8.27;2.80;;;4.60;99.90;;;;;;4978945;28;91313;-30
2023/12/22 00:35:08;;;;;;;16.23;4.05;;;4.60;99.90;;;;;;4979582;28;89692;-31
2023/12/22 00:37:33;;;;;;;6.68;3.20;;;4.60;99.90;;;;;;4979561;28;89430;-28
2023/12/22 00:39:59;;;;;;;14.18;5.15;;;4.60;99.90;;;;;;4979044;28;88326;-29
2023/12/22 00:42:25;;;;;;;19.30;4.63;;;4.60;99.90;;;;;;4979809;28;90521;-29
2023/12/22 00:44:51;;;;;;;11.32;4.80;;;4.60;99.90;;;;;;4978550;28;90139;-31
2023/12/22 00:47:17;;;;;;;6.03;3.08;;;4.60;99.90;;;;;;4978946;28;90536;-31
2023/12/22 00:49:43;;;;;;;8.45;3.55;;;4.60;99.90;;;;;;4979868;28;87708;-29
2023/12/22 00:52:08;;;;;;;6.47;2.13;;;4.70;99.90;;;;;;4978711;28;89083;-28
2023/12/22 00:54:34;;;;;;;8.98;4.07;;;4.70;99.90;;;;;;4979739;28;89505;-29
2023/12/22 00:57:00;;;;;;;15.35;6.53;;;4.70;99.90;;;;;;4978321;28;89899;-28
2023/12/22 00:59:26;;;;;;;12.70;4.38;;;4.70;99.90;;;;;;4979258;28;88140;-29
2023/12/22 01:01:52;;;;;;;18.23;4.07;;;4.80;99.90;;;;;;4979370;28;91123;-29
2023/12/22 01:04:17;;;;;;;7.10;3.63;;;4.70;99.90;;;;;;4978476;28;90026;-31
2023/12/22 01:06:43;;;;;;;6.95;2.42;;;4.60;99.90;;;;;;4978439;28;89134;-32
2023/12/22 01:09:09;;;;;;;8.68;3.13;;;4.50;99.90;;;;;;4978279;28;89924;-32
2023/12/22 01:11:34;;;;;;;14.98;3.10;;;4.50;99.90;;;;;;4979311;28;89055;-31
2023/12/22 01:14:00;;;;;;;7.38;3.50;;;4.40;99.90;;;;;;4979087;28;91284;-32
2023/12/22 01:16:25;;;;;;;24.02;5.22;;;4.40;99.90;;;;;;4978536;28;89019;-31
2023/12/22 01:18:51;;;;;;;10.93;4.57;;;4.40;99.90;;;;;;4979461;28;88253;-31
2023/12/22 01:21:17;;;;;;;5.50;3.03;;;4.50;99.90;;;;;;4978283;28;90225;-29
2023/12/22 01:23:43;;;;;;;20.48;6.25;;;4.50;99.90;;;;;;4979424;28;91253;-32
2023/12/22 01:26:08;;;;;;;7.97;3.28;;;4.50;99.90;;;;;;4978518;28;89542;-30
2023/12/22 01:28:34;;;;;;;17.77;4.57;;;4.50;99.90;;;;;;4979282;28;88627;-30
2023/12/22 01:31:00;;;;;;;8.07;3.63;;;4.70;99.90;;;;;;4978103;28;89679;-31
2023/12/22 01:33:26;;;;;;;11.63;3.47;;;4.70;99.90;;;;;;4977755;28;90913;-32
2023/12/22 01:35:51;;;;;;;10.57;4.40;;;4.70;99.90;;;;;;4979628;28;90184;-33
2023/12/22 01:38:18;;;;;;;6.40;3.17;;;4.60;99.90;;;;;;4982106;28;89547;-32
2023/12/22 01:40:44;;;;;;;17.33;4.90;;;4.50;99.90;;;;;;4982208;28;90272;-29
2023/12/22 01:43:09;;;;;;;22.10;4.18;;;4.60;99.90;;;;;;4982148;28;89482;-31
2023/12/22 01:45:35;;;;;;;13.05;3.60;;;4.60;99.90;;;;;;4981589;28;89859;-30
2023/12/22 01:48:02;;;;;;;13.52;3.38;;;4.70;99.90;;;;;;4982458;28;89446;-28
2023/12/22 01:50:28;;;;;;;12.05;3.33;;;4.70;99.90;;;;;;4980469;28;89714;-32
2023/12/22 01:52:54;;;;;;;3.53;2.85;;;4.70;99.90;;;;;;4982366;28;89917;-31
2023/12/22 01:55:19;;;;;;;11.02;2.80;;;4.60;99.90;;;;;;4982176;28;89557;-30
2023/12/22 01:57:47;;;;;;;11.52;2.67;;;4.60;99.90;;;;;;4981227;28;89136;-30
2023/12/22 02:00:13;;;;;;;9.60;4.15;;;4.60;99.90;;;;;;4982009;28;90340;-32
2023/12/22 02:02:42;;;;;;;6.32;3.00;;;4.60;99.90;;;;;;4982572;28;89410;-30
2023/12/22 02:05:11;;;;;;;7.85;3.33;;;4.50;99.90;;;;;;4981662;28;90040;-30
2023/12/22 02:07:41;;;;;;;7.07;2.75;;;4.50;99.90;;;;;;4981164;28;88254;-29
2023/12/22 02:10:10;;;;;;;5.93;2.47;;;4.50;99.90;;;;;;4980929;28;91381;-28
2023/12/22 02:12:39;;;;;;;13.40;4.80;;;4.50;99.90;;;;;;4982156;28;90280;-29
2023/12/22 02:15:05;;;;;;;9.73;4.07;;;4.60;99.90;;;;;;4981341;28;89702;-28
2023/12/22 02:18:00;;;;;;;6.53;3.08;;;4.60;99.90;;;;;;4981957;28;88316;-28
2023/12/22 02:20:26;;;;;;;14.50;4.28;;;4.50;99.90;;;;;;4971047;28;89890;-29
2023/12/22 02:22:52;;;;;;;11.25;3.88;;;4.50;99.90;;;;;;4979297;28;90744;-30
2023/12/22 02:25:18;;;;;;;10.18;3.35;;;4.70;99.90;;;;;;4981766;28;90910;-33
2023/12/22 02:27:53;;;;;;;5.80;3.85;;;4.70;99.90;;;;;;4981100;28;89877;-29
2023/12/22 02:30:42;;;;;;;8.48;2.55;;;4.60;99.90;;;;;;4981075;28;90361;-29
2023/12/22 02:33:10;;;;;;;8.23;3.25;;;4.60;99.90;;;;;;4968472;28;89914;-28
2023/12/22 02:35:38;;;;;;;9.65;3.03;;;4.60;99.90;;;;;;4981303;28;89108;-29
2023/12/22 02:38:05;;;;;;;5.40;2.40;;;4.60;99.90;;;;;;4981803;28;89468;-29
2023/12/22 02:40:31;;;;;;;8.63;3.70;;;4.70;99.90;;;;;;4981065;28;90174;-30
2023/12/22 02:42:58;;;;;;;13.82;4.45;;;4.80;99.90;;;;;;4980947;28;89627;-27
2023/12/22 02:45:23;;;;;;;13.35;4.80;;;4.90;99.90;;;;;;4981296;28;89939;-28
2023/12/22 02:47:49;;;;;;;13.35;3.85;;;4.90;99.90;;;;;;4980782;28;89599;-29
2023/12/22 02:50:16;;;;;;;7.93;2.45;;;4.90;99.90;;;;;;4980731;28;90325;-32
2023/12/22 02:52:42;;;;;;;5.00;2.00;;;4.80;99.90;;;;;;4981207;28;89980;-32
2023/12/22 02:55:08;;;;;;;6.60;2.60;;;4.80;99.90;;;;;;4980113;28;89527;-31
2023/12/22 02:57:34;;;;;;;9.75;4.72;;;4.70;99.90;;;;;;4981040;28;88976;-30
2023/12/22 03:00:00;;;;;;;7.22;2.90;;;4.70;99.90;;;;;;4981141;28;89804;-30
2023/12/22 03:02:25;;;;;;;4.97;1.77;;;4.60;99.90;;;;;;4980672;28;89002;-29
2023/12/22 03:04:51;;;;;;;9.30;4.65;;;4.60;99.90;;;;;;4981384;28;90591;-29
2023/12/22 03:07:17;;;;;;;13.38;4.43;;;4.50;99.90;;;;;;4980894;28;90044;-29
2023/12/22 03:09:43;;;;;;;14.93;3.65;;;4.50;99.90;;;;;;4981131;28;90226;-31
2023/12/22 03:12:09;;;;;;;8.13;3.40;;;4.40;99.90;;;;;;4980155;28;91287;-28
2023/12/22 03:14:36;;;;;;;13.30;4.03;;;4.40;99.90;;;;;;4980567;28;91809;-30
2023/12/22 03:17:06;;;;;;;15.43;5.10;;;4.50;99.90;;;;;;4981372;28;89549;-30
2023/12/22 03:19:32;;;;;;;5.88;2.83;;;4.50;99.90;;;;;;4981239;28;90869;-29
2023/12/22 03:21:58;;;;;;;9.90;4.80;;;4.50;99.90;;;;;;4980954;28;91218;-28
2023/12/22 03:24:25;;;;;;;3.28;2.08;;;4.50;99.90;;;;;;4980535;28;90308;-31
2023/12/22 03:26:51;;;;;;;7.22;3.53;;;4.50;99.90;;;;;;4981138;28;89559;-30
2023/12/22 03:29:17;;;;;;;9.80;3.00;;;4.40;99.90;;;;;;4980076;28;90176;-29
2023/12/22 03:31:44;;;;;;;5.13;3.33;;;4.40;99.90;;;;;;4980538;28;90690;-29
2023/12/22 03:34:09;;;;;;;8.25;2.55;;;4.40;99.90;;;;;;4980381;28;90791;-30
2023/12/22 03:36:35;;;;;;;4.65;2.83;;;4.50;99.90;;;;;;4980208;28;91023;-29
2023/12/22 03:39:01;;;;;;;6.32;2.80;;;4.50;99.90;;;;;;4980227;28;90504;-33
2023/12/22 03:41:27;;;;;;;6.45;2.17;;;4.70;99.90;;;;;;4980169;28;90264;-29
2023/12/22 03:43:52;;;;;;;2.70;1.55;;;4.70;99.90;;;;;;4980470;28;89132;-29
2023/12/22 03:46:18;;;;;;;14.18;2.40;;;4.80;99.90;;;;;;4980870;28;88478;-31
2023/12/22 03:48:44;;;;;;;10.05;2.00;;;4.80;99.90;;;;;;4978417;28;90450;-30
2023/12/22 03:51:11;;;;;;;11.02;3.38;;;4.90;99.90;;;;;;4980104;28;91054;-31
2023/12/22 03:53:37;;;;;;;10.50;2.63;;;4.90;99.90;;;;;;4980966;28;91118;-30
2023/12/22 03:56:03;;;;;;;7.95;2.35;;;4.90;99.90;;;;;;4980004;28;88804;-29
2023/12/22 03:58:29;;;;;;;5.28;2.17;;;4.90;99.90;;;;;;4978943;28;89900;-30
2023/12/22 04:00:55;;;;;;;10.45;2.17;;;4.90;99.90;;;;;;4979544;28;90473;-29
2023/12/22 04:03:21;;;;;;;3.78;2.30;;;5.00;99.90;;;;;;4979429;28;90411;-28
2023/12/22 04:05:47;;;;;;;7.13;2.17;;;5.10;99.90;;;;;;4980033;28;87697;-31
2023/12/22 04:08:12;;;;;;;3.42;2.50;;;5.10;99.90;;;;;;4979584;28;90018;-29
2023/12/22 04:10:38;;;;;;;4.57;3.65;;;5.10;99.90;;;;;;4980450;28;90016;-30
2023/12/22 04:13:03;;;;;;;2.08;1.27;;;5.00;99.90;;;;;;4979681;28;90915;-32
2023/12/22 04:15:29;;;;;;;8.27;2.33;;;4.90;99.90;;;;;;4980234;28;88810;-28
2023/12/22 04:17:54;;;;;;;4.70;1.55;;;4.80;99.90;;;;;;4979529;28;91612;-30
2023/12/22 04:20:20;;;;;;;4.75;1.40;;;4.80;99.90;;;;;;4980257;28;89926;-29
2023/12/22 04:22:46;;;;;;;13.35;2.70;;;4.70;99.90;;;;;;4979875;28;89434;-31
2023/12/22 04:25:11;;;;;;;14.50;2.30;;;4.70;99.90;;;;;;4978747;28;90505;-32
2023/12/22 04:27:37;;;;;;;5.85;2.65;;;4.70;99.90;;;;;;4979775;28;90641;-32
2023/12/22 04:30:03;;;;;;;11.18;3.72;;;4.60;99.90;;;;;;4979260;28;90123;-31
2023/12/22 04:32:28;;;;;;;7.65;2.25;;;4.60;99.90;;;;;;4979268;28;89896;-29
2023/12/22 04:34:54;;;;;;;10.55;2.95;;;4.50;99.90;;;;;;4979459;28;88357;-28
2023/12/22 04:37:19;;;;;;;11.80;4.97;;;4.50;99.90;;;;;;4978868;28;90238;-29
2023/12/22 04:39:45;;;;;;;7.53;2.97;;;4.50;99.90;;;;;;4979201;28;89994;-30
2023/12/22 04:42:11;;;;;;;11.65;3.22;;;4.40;99.90;;;;;;4978984;28;90061;-31
2023/12/22 04:44:36;;;;;;;19.60;6.35;;;4.40;99.90;;;;;;4980313;28;88578;-29
2023/12/22 04:47:02;;;;;;;12.10;2.88;;;4.40;99.90;;;;;;4978375;28;90170;-31
2023/12/22 04:49:28;;;;;;;8.65;2.78;;;4.40;99.90;;;;;;4978806;28;90702;-34
2023/12/22 04:51:53;;;;;;;19.13;5.93;;;4.50;99.90;;;;;;4979341;28;91304;-29
2023/12/22 04:54:19;;;;;;;10.80;4.03;;;4.50;99.90;;;;;;4978430;28;90117;-29
2023/12/22 04:56:45;;;;;;;13.63;3.40;;;4.70;99.90;;;;;;4979356;28;89530;-30
2023/12/22 04:59:10;;;;;;;13.10;4.47;;;4.70;99.90;;;;;;4978306;28;89525;-31
2023/12/22 05:01:36;;;;;;;16.90;3.13;;;4.80;99.90;;;;;;4977018;28;88703;-29
2023/12/22 05:04:04;;;;;;;9.93;3.05;;;4.90;99.90;;;;;;4978968;28;89195;-32
2023/12/22 05:06:30;;;;;;;10.43;4.80;;;5.00;99.90;;;;;;4979008;28;89830;-31
2023/12/22 05:08:56;;;;;;;9.30;3.80;;;5.00;99.90;;;;;;4979441;28;90143;-29
2023/12/22 05:11:22;;;;;;;13.57;4.45;;;4.90;99.90;;;;;;4973000;28;90399;-31
2023/12/22 05:13:48;;;;;;;6.85;3.03;;;5.00;99.90;;;;;;4978182;28;88746;-30
2023/12/22 05:16:14;;;;;;;11.15;4.35;;;5.10;99.90;;;;;;4978151;28;89927;-29
2023/12/22 05:18:41;;;;;;;15.32;4.82;;;5.10;99.90;;;;;;4971377;28;90113;-30
2023/12/22 05:21:06;;;;;;;8.10;3.67;;;5.10;99.90;;;;;;4974606;28;89635;-32
2023/12/22 05:23:32;;;;;;;10.63;3.80;;;5.20;99.90;;;;;;4980137;28;89595;-31
2023/12/22 05:25:58;;;;;;;7.30;3.38;;;5.20;99.90;;;;;;4977930;28;90659;-31
2023/12/22 05:28:24;;;;;;;10.77;5.63;;;5.30;99.90;;;;;;4978729;28;90181;-31
2023/12/22 05:30:49;;;;;;;6.07;4.22;;;5.30;99.90;;;;;;4978726;28;90130;-30
2023/12/22 05:33:15;;;;;;;8.80;3.55;;;5.30;99.90;;;;;;4978869;28;88969;-30
2023/12/22 05:35:41;;;;;;;26.35;3.78;;;5.30;99.90;;;;;;4978643;28;89896;-31
2023/12/22 05:38:06;;;;;;;23.75;4.93;;;5.30;99.90;;;;;;4977627;28;90939;-30
2023/12/22 05:40:32;;;;;;;10.80;4.40;;;5.40;99.90;;;;;;4978168;28;90152;-30
2023/12/22 05:42:57;;;;;;;18.58;3.70;;;5.40;99.90;;;;;;4978925;28;87808;-30
2023/12/22 05:45:24;;;;;;;12.50;3.20;;;5.50;99.90;;;;;;4978867;28;91392;-29
2023/12/22 05:47:50;;;;;;;22.17;6.60;;;5.50;99.90;;;;;;4978132;28;90186;-29
2023/12/22 05:50:16;;;;;;;8.82;3.60;;;5.60;99.90;;;;;;4977834;28;89881;-29
2023/12/22 05:52:44;;;;;;;10.30;3.80;;;5.50;99.90;;;;;;4979150;28;89382;-29
2023/12/22 05:55:10;;;;;;;13.15;3.75;;;5.50;99.90;;;;;;4978402;28;89864;-30
2023/12/22 05:57:36;;;;;;;8.90;3.13;;;5.50;99.90;;;;;;4978376;28;89896;-28
2023/12/22 06:00:04;;;;;;;8.48;3.67;;;5.60;99.90;;;;;;4977752;28;89529;-30
2023/12/22 06:02:30;;;;;;;;;;;5.70;99.90;;;;;;4979018;28;90027;-29
2023/12/22 06:04:55;;;;;;;20.30;4.25;;;5.70;99.90;;;;;;4979073;28;90254;-29
2023/12/22 06:07:21;;;;;;;14.75;3.53;;;5.70;99.90;;;;;;4978413;28;89580;-32
2023/12/22 06:09:46;;;;;;;8.65;3.22;;;5.70;99.90;;;;;;4976234;28;89666;-30
2023/12/22 06:12:12;;;;;;;5.88;3.22;;;5.70;99.90;;;;;;4978165;28;89651;-33
2023/12/22 06:14:38;;;;;;;6.65;2.80;;;5.70;99.90;;;;;;4976375;28;90301;-30
2023/12/22 06:17:03;;;;;;;14.88;4.53;;;5.70;99.90;;;;;;4977357;28;89497;-32
2023/12/22 06:19:30;;;;;;;15.20;4.53;;;5.80;99.90;;;;;;4979332;28;90225;-28
2023/12/22 06:21:57;;;;;;;9.20;4.28;;;5.70;99.90;;;;;;4978824;28;89518;-28
2023/12/22 06:24:23;;;;;;;12.27;4.43;;;5.70;99.90;;;;;;4980968;28;88390;-31
2023/12/22 06:26:48;;;;;;;9.63;3.30;;;5.70;99.90;;;;;;4981337;28;90116;-29
2023/12/22 06:29:14;;;;;;;13.60;4.28;;;5.80;99.90;;;;;;4980120;28;90562;-31
2023/12/22 06:31:40;;;;;;;6.97;3.20;;;5.70;99.90;;;;;;4982069;28;89516;-30
2023/12/22 06:34:05;;;;;;;6.85;3.63;;;5.80;99.90;;;;;;4980871;28;90584;-32
2023/12/22 06:36:31;;;;;;;12.43;2.45;;;5.70;99.90;;;;;;4981489;28;90516;-31
2023/12/22 06:38:57;;;;;;;7.85;2.70;;;5.70;99.90;;;;;;4980935;28;89762;-31
2023/12/22 06:41:30;;;;;;;9.93;4.05;;;5.70;99.90;;;;;;4981264;28;91904;-29
2023/12/22 06:43:59;;;;;;;17.33;3.72;;;5.70;99.90;;;;;;4981410;28;88940;-29
2023/12/22 06:46:25;;;;;;;7.90;2.80;;;5.80;99.90;;;;;;4981780;28;89185;-30
2023/12/22 06:48:52;;;;;;;5.35;3.05;;;5.70;99.90;;;;;;4980988;28;89517;-30
2023/12/22 06:51:26;;;;;;;12.80;3.65;;;5.70;99.90;;;;;;4975064;28;88703;-29
2023/12/22 06:53:53;;;;;;;5.50;2.42;;;5.80;99.90;;;;;;4976993;28;90413;-30
2023/12/22 06:56:20;;;;;;;14.88;3.92;;;5.70;99.90;;;;;;4981079;28;90037;-32
2023/12/22 06:58:48;;;;;;;13.85;3.63;;;5.80;99.90;;;;;;4981014;28;89401;-32
2023/12/22 07:01:21;;;;;;;6.53;2.80;;;5.80;99.90;;;;;;4981185;28;89220;-31
2023/12/22 07:03:50;;;;;;;4.55;2.80;;;5.80;99.90;;;;;;4980549;28;93753;-32
2023/12/22 07:06:20;;;;;;;9.45;2.65;;;5.90;99.90;;;;;;4980688;28;89193;-32
2023/12/22 07:09:14;;;;;;;16.05;3.15;;;5.80;99.90;;;;;;4981797;28;89955;-32
2023/12/22 07:11:40;;;;;;;9.82;3.53;;;5.80;99.90;;;;;;4981417;28;90243;-32
2023/12/22 07:14:06;;;;;;;14.20;4.90;;;5.80;99.90;;;;;;4980585;28;90554;-32
2023/12/22 07:16:32;;;;;;;7.35;2.55;;;5.80;99.90;;;;;;4980349;28;90902;-30
2023/12/22 07:18:58;;;;;;;5.15;2.83;;;5.90;99.90;;;;;;4980140;28;90550;-31
2023/12/22 07:21:24;;;;;;;5.63;2.95;;;5.90;99.90;;;;;;4980971;28;89436;-32
2023/12/22 07:23:49;;;;;;;12.52;4.15;;;5.90;99.90;;;;;;4980691;28;90273;-30
2023/12/22 07:26:15;;;;;;;5.38;2.53;;;5.80;99.90;;;;;;4979393;28;89406;-30
2023/12/22 07:28:40;;;;;;;6.32;3.72;;;5.90;99.90;;;;;;4980183;28;90250;-32
2023/12/22 07:31:06;;;;;;;5.35;2.38;;;5.90;99.90;;;;;;4979949;28;89211;-30
2023/12/22 07:33:32;;;;;;;4.50;2.08;;;5.90;99.90;;;;;;4979124;28;89912;-31
2023/12/22 07:35:57;;;;;;;19.20;4.80;;;6.00;99.90;;;;;;4979639;28;89749;-29
2023/12/22 07:38:23;;;;;;;11.52;3.25;;;5.90;99.90;;;;;;4980222;28;90130;-33
2023/12/22 07:40:49;;;;;;;21.48;3.70;;;5.90;99.90;;;;;;5011168;22;89520;-30
2023/12/22 07:43:15;;;;;;;13.85;3.83;;;5.90;99.90;;;;;;4989125;28;89825;-30
2023/12/22 07:45:41;;;;;;;12.57;4.13;;;5.90;99.90;;;;;;5000137;28;89627;-30
2023/12/22 07:48:06;;;;;;;13.98;3.88;;;5.90;99.90;;;;;;4999336;28;88362;-32
2023/12/22 07:50:32;;;;;;;4.78;3.00;;;5.90;99.90;;;;;;4999953;28;89622;-32
2023/12/22 07:52:58;;;;;;;6.95;1.80;;;6.00;99.90;;;;;;4999084;28;89859;-30
2023/12/22 07:55:24;;;;;;;10.00;3.25;;;6.00;99.90;;;;;;4993995;28;89417;-28
2023/12/22 07:57:50;;;;;;;5.22;3.17;;;6.00;99.90;;;;;;5000282;28;89828;-29
2023/12/22 08:00:17;;;;;;;12.13;3.08;;;6.00;99.90;;;;;;5000074;28;89705;-31
2023/12/22 08:02:43;;;;;;;30.25;3.58;;;6.00;99.90;;;;;;4999228;28;90169;-31
2023/12/22 08:05:09;;;;;;;13.43;4.05;;;5.90;99.90;;;;;;4990858;28;90513;-30
2023/12/22 08:07:35;;;;;;;6.65;3.40;;;6.00;99.90;;;;;;4990376;28;91047;-31
2023/12/22 08:10:02;;;;;;;7.50;2.85;;;6.00;99.90;;;;;;4993960;28;89358;-31
2023/12/22 08:12:28;;;;;;;13.30;3.13;;;6.00;99.90;;;;;;4994973;28;89262;-30
2023/12/22 08:14:54;;;;;;;8.75;3.20;;;6.00;99.90;;;;;;4977788;28;88949;-29
2023/12/22 08:17:20;;;;;;;10.35;3.50;;;5.90;99.90;;;;;;4982411;28;89275;-30
2023/12/22 08:19:45;;;;;;;12.43;3.30;;;5.90;99.90;;;;;;4986928;28;88332;-31
2023/12/22 08:22:14;;;;;;;19.40;3.58;;;5.90;99.90;;;;;;4982377;28;91018;-30
2023/12/22 08:24:41;;;;;;;8.23;3.63;;;5.90;99.90;;;;;;4984512;28;89240;-33
2023/12/22 08:27:07;;;;;;;16.52;5.60;;;5.90;99.90;;;;;;4981753;28;88353;-30
2023/12/22 08:29:33;;;;;;;16.25;4.43;;;6.00;99.90;;;;;;4989965;28;89473;-29
2023/12/22 08:31:58;;;;;;;7.00;2.85;;;6.00;99.90;;;;;;4978166;28;90617;-31
2023/12/22 08:34:24;;;;;;;6.00;2.40;;;6.00;99.90;;;;;;4976122;28;90199;-29
2023/12/22 08:36:50;;;;;;;5.20;4.05;;;6.10;99.90;;;;;;4977187;28;89429;-30
2023/12/22 08:39:15;;;;;;;12.05;4.32;;;6.10;99.90;;;;;;4978308;28;88596;-29
2023/12/22 08:41:41;;;;;;;15.68;3.47;;;6.20;99.90;;;;;;4977138;28;90260;-32
2023/12/22 08:44:07;;;;;;;8.20;4.03;;;6.20;99.90;;;;;;4977045;28;89745;-30
2023/12/22 08:46:33;;;;;;;13.30;2.90;;;6.20;99.90;;;;;;4976813;28;89137;-30
2023/12/22 08:48:59;;;;;;;7.22;4.47;;;6.20;99.90;;;;;;4977160;28;88174;-31
2023/12/22 08:51:26;;;;;;;6.07;3.03;;;6.20;99.90;;;;;;4976824;28;92332;-29
2023/12/22 08:53:52;;;;;;;6.55;2.08;;;6.20;99.90;;;;;;4975425;28;91026;-28
2023/12/22 08:56:18;;;;;;;8.95;2.97;;;6.20;99.90;;;;;;4976338;28;90299;-30
2023/12/22 08:58:43;;;;;;;14.90;3.13;;;6.20;99.90;;;;;;4975285;28;89666;-29
2023/12/22 09:01:15;;;;;;;14.10;3.53;;;6.20;99.90;;;;;;4975089;28;90048;-30
2023/12/22 09:03:45;;;;;;;9.07;2.45;;;6.20;99.90;;;;;;4984250;28;89987;-31
2023/12/22 09:06:13;;;;;;;4.68;1.75;;;6.20;99.90;;;;;;4978557;28;89291;-30
2023/12/22 09:08:38;;;;;;;3.85;2.45;;;6.20;99.90;;;;;;4984057;28;89325;-30
2023/12/22 09:11:04;;;;;;;2.45;1.55;;;6.20;99.90;;;;;;4981098;28;87787;-32
2023/12/22 09:13:30;;;;;;;3.38;1.50;;;6.20;99.90;;;;;;4977890;28;90035;-31
2023/12/22 09:15:57;;;;;;;3.15;1.20;;;6.20;99.90;;;;;;4981844;28;88753;-30
2023/12/22 09:18:23;;;;;;;4.85;1.85;;;6.30;99.90;;;;;;4987273;28;89516;-29
2023/12/22 09:20:48;;;;;;;2.67;1.13;;;6.30;99.90;;;;;;4982500;28;89294;-28
2023/12/22 09:23:14;;;;;;;2.03;1.35;;;6.40;99.90;;;;;;4987039;28;89504;-31
2023/12/22 09:25:40;;;;;;;4.07;1.33;;;6.50;99.90;;;;;;4981229;28;89813;-30
2023/12/22 09:28:06;;;;;;;1.45;0.75;;;6.60;99.90;;;;;;4988441;28;89519;-33
2023/12/22 09:30:31;;;;;;;6.32;1.90;;;6.70;99.90;;;;;;4984538;28;90291;-31
2023/12/22 09:32:57;;;;;;;3.22;1.73;;;6.60;99.90;;;;;;4995923;28;89697;-30
2023/12/22 09:35:25;;;;;;;4.47;1.63;;;6.70;99.90;;;;;;4997930;28;89054;-30
2023/12/22 09:37:50;;;;;;;2.83;0.70;;;6.70;99.90;;;;;;4977025;28;89827;-31
2023/12/22 09:40:16;;;;;;;2.38;1.25;;;6.60;99.90;;;;;;4937773;28;1128943;-33
2023/12/22 09:42:43;;;;;;;2.10;1.10;;;6.70;99.90;;;;;;4979051;28;89399;-31
2023/12/22 09:45:13;;;;;;;2.13;1.10;;;6.60;99.90;;;;;;4978592;28;90458;-31
2023/12/22 09:47:42;;;;;;;2.05;1.13;;;6.70;99.90;;;;;;4983536;28;88779;-28
2023/12/22 09:50:08;;;;;;;1.20;1.10;;;6.70;99.90;;;;;;4997138;28;89762;-30
2023/12/22 09:52:36;;;;;;;3.13;1.13;;;6.70;99.90;;;;;;4996675;28;90426;-28
2023/12/22 09:55:03;;;;;;;5.88;1.77;;;6.70;99.90;;;;;;4998214;28;89686;-31
2023/12/22 09:57:30;;;;;;;2.87;1.23;;;6.70;99.90;;;;;;4999990;28;89096;-31
2023/12/22 09:59:58;;;;;;;2.17;1.00;;;6.70;99.90;;;;;;4999150;28;89992;-29
2023/12/22 10:02:26;;;;;;;1.40;1.25;;;6.70;99.90;;;;;;5000738;28;89982;-29
2023/12/22 10:04:52;;;;;;;2.50;0.60;;;6.70;99.90;;;;;;5000682;28;89050;-28
2023/12/22 10:07:20;;;;;;;3.13;1.10;;;6.70;99.90;;;;;;5000908;28;90491;-33
2023/12/22 10:09:47;;;;;;;0.50;0.50;;;6.80;99.90;;;;;;4998589;28;90187;-30
2023/12/22 10:12:14;;;;;;;1.38;1.27;;;6.70;99.90;;;;;;4990594;28;89430;-33
2023/12/22 10:14:41;;;;;;;3.53;1.23;;;6.70;99.90;;;;;;5000092;28;89314;-31
2023/12/22 10:17:07;;;;;;;2.35;0.80;;;6.70;99.90;;;;;;4999964;28;89691;-30
2023/12/22 10:19:32;;;;;;;4.70;1.75;;;6.70;99.90;;;;;;5001018;28;90315;-32
2023/12/22 10:21:58;;;;;;;0.82;0.82;;;6.70;99.90;;;;;;5002427;28;88685;-30
2023/12/22 10:24:43;;;;;;;8.98;2.92;;;6.70;99.90;;;;;;5001107;28;89517;-31
2023/12/22 10:27:10;;;;;;;6.75;1.58;;;6.70;99.90;;;;;;5000023;28;88262;-31
2023/12/22 10:29:36;;;;;;;2.00;1.08;;;6.80;99.90;;;;;;5001401;28;90368;-30
2023/12/22 10:32:03;;;;;;;2.85;1.30;;;6.70;99.90;;;;;;5000335;28;91439;-30
2023/12/22 10:34:29;;;;;;;15.88;2.50;;;6.80;99.90;;;;;;4995981;28;92225;-28
2023/12/22 10:36:55;;;;;;;4.97;2.53;;;6.70;99.90;;;;;;4992928;28;89182;-32
2023/12/22 10:39:21;;;;;;;4.20;1.50;;;6.80;99.90;;;;;;5000384;28;90179;-30
2023/12/22 10:41:49;;;;;;;4.15;1.55;;;6.80;99.90;;;;;;5001436;28;89717;-30
2023/12/22 10:44:17;;;;;;;3.17;2.27;;;6.80;99.90;;;;;;5001515;28;89797;-29
2023/12/22 10:46:43;;;;;;;7.13;1.42;;;6.70;99.90;;;;;;5000988;28;89535;-32
2023/12/22 10:49:08;;;;;;;6.05;2.17;;;6.70;99.90;;;;;;4999763;28;90904;-31
2023/12/22 10:51:34;;;;;;;2.33;1.42;;;6.70;99.90;;;;;;5000637;28;90124;-31
2023/12/22 10:53:59;;;;;;;9.07;2.28;;;6.70;99.90;;;;;;4999834;28;89532;-28
2023/12/22 10:56:25;;;;;;;3.67;1.52;;;6.70;99.90;;;;;;5001054;28;88130;-30
2023/12/22 10:58:54;;;;;;;5.82;2.22;;;6.80;99.90;;;;;;4999481;28;90911;-30
2023/12/22 11:01:27;;;;;;;3.38;1.60;;;6.80;99.90;;;;;;5000308;28;89978;-31
2023/12/22 11:03:57;;;;;;;3.17;2.13;;;6.80;99.90;;;;;;4975669;28;88926;-31
2023/12/22 11:06:28;;;;;;;8.07;2.05;;;6.80;99.90;;;;;;4999755;28;90172;-30
2023/12/22 11:08:57;;;;;;;3.85;1.75;;;6.80;99.90;;;;;;4999622;28;89865;-31
2023/12/22 11:11:36;;;;;;;3.45;1.90;;;6.80;99.90;;;;;;4998485;28;89637;-31
2023/12/22 11:14:02;;;;;;;6.30;2.30;;;6.80;99.90;;;;;;4999809;28;89680;-30
2023/12/22 11:16:29;;;;;;;8.88;3.78;;;6.80;99.90;;;;;;4997710;28;90316;-29
2023/12/22 11:18:56;;;;;;;10.15;3.03;;;6.80;99.90;;;;;;4999125;28;90429;-31
2023/12/22 11:21:25;;;;;;;2.75;1.42;;;6.80;99.90;;;;;;4998245;28;90805;-31
2023/12/22 11:23:52;;;;;;;8.05;2.42;;;6.80;99.90;;;;;;4999685;28;90937;-31
2023/12/22 11:26:18;;;;;;;5.72;1.52;;;6.80;99.90;;;;;;4997332;28;89102;-31
2023/12/22 11:28:48;;;;;;;9.45;3.00;;;6.90;99.90;;;;;;4999208;28;90236;-31
2023/12/22 11:31:15;;;;;;;6.38;3.08;;;6.90;99.90;;;;;;4981452;28;89801;-32
2023/12/22 11:33:45;;;;;;;5.15;2.03;;;6.90;99.90;;;;;;4980944;28;89142;-30
2023/12/22 11:36:12;;;;;;;5.00;2.30;;;6.90;99.90;;;;;;4981376;28;88466;-29
2023/12/22 11:38:40;;;;;;;4.38;1.70;;;6.90;99.90;;;;;;4979917;28;90047;-31
2023/12/22 11:41:12;;;;;;;7.60;1.58;;;7.00;99.90;;;;;;4979235;28;89331;-32
2023/12/22 11:43:39;;;;;;;6.43;4.03;;;7.00;99.90;;;;;;4981696;28;90028;-30
2023/12/22 11:46:05;;;;;;;8.20;2.05;;;7.00;99.90;;;;;;4973249;28;89260;-30
2023/12/22 11:48:31;;;;;;;9.68;2.67;;;7.00;99.90;;;;;;4981713;28;90003;-33
2023/12/22 11:50:57;;;;;;;2.80;1.65;;;7.00;99.90;;;;;;4981605;28;89535;-31
2023/12/22 11:53:30;;;;;;;3.75;3.22;;;7.00;99.90;;;;;;4981177;28;90343;-31
2023/12/22 11:56:02;;;;;;;6.93;3.70;;;7.00;99.90;;;;;;4980796;28;88711;-30
2023/12/22 11:58:37;;;;;;;2.13;1.38;;;7.00;99.90;;;;;;4981920;28;90334;-30
2023/12/22 12:01:05;;;;;;;4.65;1.80;;;7.10;99.90;;;;;;4981910;28;89284;-31
2023/12/22 12:03:31;;;;;;;6.32;1.42;;;7.10;99.90;;;;;;4986085;28;90368;-31
2023/12/22 12:06:16;;;;;;;3.63;2.10;;;7.10;99.90;;;;;;4984092;28;89435;-31
2023/12/22 12:08:43;;;;;;;2.35;1.27;;;7.10;99.90;;;;;;4980836;28;90098;-31
2023/12/22 12:11:08;;;;;;;3.60;1.73;;;7.10;99.90;;;;;;4983115;28;91156;-32
2023/12/22 12:13:34;;;;;;;8.48;2.92;;;7.10;99.90;;;;;;4984789;28;90239;-30
2023/12/22 12:16:03;;;;;;;17.58;2.58;;;7.20;99.90;;;;;;4983939;28;90467;-32
2023/12/22 12:18:30;;;;;;;6.68;1.67;;;7.20;99.90;;;;;;4984528;28;89905;-32
2023/12/22 12:20:56;;;;;;;10.40;3.38;;;7.20;99.90;;;;;;4983714;28;89998;-29
2023/12/22 12:23:24;;;;;;;11.43;2.55;;;7.20;99.90;;;;;;4984907;28;89591;-30
2023/12/22 12:25:50;;;;;;;3.88;1.52;;;7.20;99.90;;;;;;4985071;28;88126;-27
2023/12/22 12:28:19;;;;;;;3.40;2.17;;;7.20;99.90;;;;;;4989116;28;90342;-30
2023/12/22 12:30:46;;;;;;;3.47;2.17;;;7.20;99.90;;;;;;4984895;28;89346;-31
2023/12/22 12:33:15;;;;;;;2.57;1.90;;;7.20;99.90;;;;;;4979800;28;89531;-31
2023/12/22 12:35:44;;;;;;;8.07;2.92;;;7.30;99.90;;;;;;4980485;28;89544;-31
2023/12/22 12:38:10;;;;;;;5.18;1.27;;;7.20;99.90;;;;;;4980019;28;90578;-33
2023/12/22 12:40:40;;;;;;;5.35;1.83;;;7.30;99.90;;;;;;4979046;28;90656;-28
2023/12/22 12:43:05;;;;;;;1.10;1.00;;;7.30;99.90;;;;;;4978934;28;88572;-30
2023/12/22 12:45:31;;;;;;;8.40;3.05;;;7.30;99.90;;;;;;4980096;28;89325;-30
2023/12/22 12:48:03;;;;;;;5.60;1.75;;;7.30;99.90;;;;;;4979612;28;89483;-30
2023/12/22 12:50:31;;;;;;;2.80;2.03;;;7.30;99.90;;;;;;4996179;28;89944;-30